sensor_id;sensor_type;location;lat;lon;timestamp;pressure;altitude;pressure_sealevel;temperature;humidity
13015;BME280;6573;57.696;11.950;2023-11-18T00:00:10;102436.44;;;3.47;100.00
13015;BME280;6573;57.696;11.950;2023-11-18T00:02:41;102480.34;;;3.75;100.00
13015;BME280;6573;57.696;11.950;2023-11-18T00:05:11;102472.16;;;3.67;100.00
13015;BME280;6573;57.696;11.950;2023-11-18T00:07:41;102379.41;;;3.18;100.00
13015;BME280;6573;57.696;11.950;2023-11-18T00:10:12;102457.44;;;3.68;100.00
13015;BME280;6573;57.696;11.950;2023-11-18T00:12:41;102472.06;;;3.82;100.00
13015;BME280;6573;57.696;11.950;2023-11-18T00:15:10;102482.31;;;3.79;100.00
13015;BME280;6573;57.696;11.950;2023-11-18T00:17:39;102405.91;;;3.27;100.00
13015;BME280;6573;57.696;11.950;2023-11-18T00:20:08;102455.28;;;3.59;100.00
13015;BME280;6573;57.696;11.950;2023-11-18T00:22:53;102414.56;;;3.44;100.00
13015;BME280;6573;57.696;11.950;2023-11-18T00:25:43;102379.75;;;3.24;100.00
13015;BME280;6573;57.696;11.950;2023-11-18T00:28:12;102444.38;;;3.66;100.00
13015;BME280;6573;57.696;11.950;2023-11-18T00:30:41;102418.19;;;3.63;100.00
13015;BME280;6573;57.696;11.950;2023-11-18T00:33:09;102417.41;;;3.48;100.00
13015;BME280;6573;57.696;11.950;2023-11-18T00:35:38;102452.19;;;3.50;100.00
13015;BME280;6573;57.696;11.950;2023-11-18T00:38:23;102428.66;;;3.31;100.00
13015;BME280;6573;57.696;11.950;2023-11-18T00:40:55;102490.38;;;3.67;100.00
13015;BME280;6573;57.696;11.950;2023-11-18T00:43:24;102494.44;;;3.62;100.00
13015;BME280;6573;57.696;11.950;2023-11-18T00:45:52;102435.84;;;3.53;100.00
13015;BME280;6573;57.696;11.950;2023-11-18T00:48:21;102412.72;;;3.25;100.00
13015;BME280;6573;57.696;11.950;2023-11-18T00:50:49;102466.13;;;3.35;100.00
13015;BME280;6573;57.696;11.950;2023-11-18T00:53:18;102490.06;;;3.45;100.00
13015;BME280;6573;57.696;11.950;2023-11-18T00:55:48;102475.06;;;3.40;100.00
13015;BME280;6573;57.696;11.950;2023-11-18T00:58:18;102501.78;;;3.69;100.00
13015;BME280;6573;57.696;11.950;2023-11-18T01:00:47;102507.44;;;3.78;100.00
13015;BME280;6573;57.696;11.950;2023-11-18T01:03:16;102418.84;;;3.09;100.00
13015;BME280;6573;57.696;11.950;2023-11-18T01:05:45;102415.16;;;3.06;100.00
13015;BME280;6573;57.696;11.950;2023-11-18T01:08:15;102406.06;;;3.14;100.00
13015;BME280;6573;57.696;11.950;2023-11-18T01:10:44;102477.22;;;3.64;100.00
13015;BME280;6573;57.696;11.950;2023-11-18T01:13:12;102511.34;;;3.70;100.00
13015;BME280;6573;57.696;11.950;2023-11-18T01:15:43;102510.56;;;3.71;100.00
13015;BME280;6573;57.696;11.950;2023-11-18T01:18:11;102489.81;;;3.73;100.00
13015;BME280;6573;57.696;11.950;2023-11-18T01:20:40;102512.31;;;3.72;100.00
13015;BME280;6573;57.696;11.950;2023-11-18T01:23:08;102505.53;;;3.92;100.00
13015;BME280;6573;57.696;11.950;2023-11-18T01:25:37;102506.47;;;4.10;100.00
13015;BME280;6573;57.696;11.950;2023-11-18T01:28:07;102515.84;;;4.07;100.00
13015;BME280;6573;57.696;11.950;2023-11-18T01:30:36;102505.81;;;3.80;100.00
13015;BME280;6573;57.696;11.950;2023-11-18T01:33:06;102508.47;;;3.64;100.00
13015;BME280;6573;57.696;11.950;2023-11-18T01:35:35;102508.06;;;3.57;100.00
13015;BME280;6573;57.696;11.950;2023-11-18T01:38:04;102502.75;;;3.55;100.00
13015;BME280;6573;57.696;11.950;2023-11-18T01:40:33;102497.50;;;3.87;100.00
13015;BME280;6573;57.696;11.950;2023-11-18T01:43:03;102394.91;;;3.33;100.00
13015;BME280;6573;57.696;11.950;2023-11-18T01:45:38;102507.38;;;4.11;100.00
13015;BME280;6573;57.696;11.950;2023-11-18T01:48:09;102506.75;;;3.99;100.00
13015;BME280;6573;57.696;11.950;2023-11-18T01:50:38;102391.78;;;3.22;100.00
13015;BME280;6573;57.696;11.950;2023-11-18T01:53:08;102436.06;;;3.57;100.00
13015;BME280;6573;57.696;11.950;2023-11-18T01:55:38;102500.06;;;4.04;100.00
13015;BME280;6573;57.696;11.950;2023-11-18T01:58:23;102502.31;;;4.14;100.00
13015;BME280;6573;57.696;11.950;2023-11-18T02:00:53;102498.59;;;4.09;100.00
13015;BME280;6573;57.696;11.950;2023-11-18T02:03:23;102474.38;;;3.93;100.00
13015;BME280;6573;57.696;11.950;2023-11-18T02:05:54;102470.84;;;3.75;100.00
13015;BME280;6573;57.696;11.950;2023-11-18T02:08:23;102401.66;;;3.13;100.00
13015;BME280;6573;57.696;11.950;2023-11-18T02:10:56;102491.22;;;3.66;100.00
13015;BME280;6573;57.696;11.950;2023-11-18T02:13:30;102418.09;;;3.12;100.00
13015;BME280;6573;57.696;11.950;2023-11-18T02:16:03;102363.22;;;2.90;100.00
13015;BME280;6573;57.696;11.950;2023-11-18T02:18:38;102502.63;;;3.52;100.00
13015;BME280;6573;57.696;11.950;2023-11-18T02:21:11;102428.75;;;3.16;100.00
13015;BME280;6573;57.696;11.950;2023-11-18T02:23:41;102461.66;;;3.32;100.00
13015;BME280;6573;57.696;11.950;2023-11-18T02:26:20;102481.41;;;3.45;100.00
13015;BME280;6573;57.696;11.950;2023-11-18T02:28:49;102447.97;;;3.36;100.00
13015;BME280;6573;57.696;11.950;2023-11-18T02:31:29;102461.75;;;3.67;100.00
13015;BME280;6573;57.696;11.950;2023-11-18T02:34:02;102467.34;;;3.75;100.00
13015;BME280;6573;57.696;11.950;2023-11-18T02:36:36;102463.88;;;3.74;100.00
13015;BME280;6573;57.696;11.950;2023-11-18T02:39:13;102506.00;;;3.67;100.00
13015;BME280;6573;57.696;11.950;2023-11-18T02:41:48;102507.00;;;3.69;100.00
13015;BME280;6573;57.696;11.950;2023-11-18T02:44:22;102501.78;;;3.69;100.00
13015;BME280;6573;57.696;11.950;2023-11-18T02:46:52;102498.34;;;3.86;100.00
13015;BME280;6573;57.696;11.950;2023-11-18T02:49:20;102360.06;;;3.13;100.00
13015;BME280;6573;57.696;11.950;2023-11-18T02:51:49;102464.84;;;3.60;100.00
13015;BME280;6573;57.696;11.950;2023-11-18T02:54:18;102389.97;;;3.21;100.00
13015;BME280;6573;57.696;11.950;2023-11-18T02:56:47;102494.53;;;3.98;100.00
13015;BME280;6573;57.696;11.950;2023-11-18T02:59:16;102506.44;;;3.92;100.00
13015;BME280;6573;57.696;11.950;2023-11-18T03:01:45;102393.47;;;3.05;100.00
13015;BME280;6573;57.696;11.950;2023-11-18T03:04:14;102501.13;;;3.73;100.00
13015;BME280;6573;57.696;11.950;2023-11-18T03:06:46;102470.78;;;3.58;100.00
13015;BME280;6573;57.696;11.950;2023-11-18T03:09:14;102508.25;;;3.77;100.00
13015;BME280;6573;57.696;11.950;2023-11-18T03:11:44;102510.72;;;3.74;100.00
13015;BME280;6573;57.696;11.950;2023-11-18T03:14:14;102429.44;;;3.46;100.00
13015;BME280;6573;57.696;11.950;2023-11-18T03:16:43;102472.69;;;3.44;100.00
13015;BME280;6573;57.696;11.950;2023-11-18T03:19:12;102394.16;;;2.85;100.00
13015;BME280;6573;57.696;11.950;2023-11-18T03:21:41;102473.66;;;2.98;100.00
13015;BME280;6573;57.696;11.950;2023-11-18T03:24:10;102481.00;;;3.05;100.00
13015;BME280;6573;57.696;11.950;2023-11-18T03:26:39;102493.50;;;3.12;100.00
13015;BME280;6573;57.696;11.950;2023-11-18T03:29:08;102398.25;;;2.49;100.00
13015;BME280;6573;57.696;11.950;2023-11-18T03:31:39;102415.50;;;2.80;100.00
13015;BME280;6573;57.696;11.950;2023-11-18T03:34:11;102469.38;;;3.14;100.00
13015;BME280;6573;57.696;11.950;2023-11-18T03:36:40;102491.25;;;3.34;100.00
13015;BME280;6573;57.696;11.950;2023-11-18T03:39:09;102416.97;;;3.07;100.00
13015;BME280;6573;57.696;11.950;2023-11-18T03:41:38;102491.88;;;3.46;100.00
13015;BME280;6573;57.696;11.950;2023-11-18T03:44:07;102489.50;;;3.51;100.00
13015;BME280;6573;57.696;11.950;2023-11-18T03:46:35;102411.41;;;3.33;100.00
13015;BME280;6573;57.696;11.950;2023-11-18T03:49:06;102448.09;;;3.71;100.00
13015;BME280;6573;57.696;11.950;2023-11-18T03:51:34;102421.97;;;3.36;100.00
13015;BME280;6573;57.696;11.950;2023-11-18T03:54:04;102410.91;;;3.40;100.00
13015;BME280;6573;57.696;11.950;2023-11-18T03:56:32;102464.34;;;3.67;100.00
13015;BME280;6573;57.696;11.950;2023-11-18T03:59:01;102483.69;;;3.88;100.00
13015;BME280;6573;57.696;11.950;2023-11-18T04:01:31;102395.63;;;3.30;100.00
13015;BME280;6573;57.696;11.950;2023-11-18T04:04:00;102451.00;;;3.77;100.00
13015;BME280;6573;57.696;11.950;2023-11-18T04:06:30;102459.28;;;3.86;100.00
13015;BME280;6573;57.696;11.950;2023-11-18T04:08:59;102485.78;;;3.96;100.00
13015;BME280;6573;57.696;11.950;2023-11-18T04:11:27;102449.25;;;3.60;100.00
13015;BME280;6573;57.696;11.950;2023-11-18T04:13:56;102428.38;;;3.43;100.00
13015;BME280;6573;57.696;11.950;2023-11-18T04:16:25;102395.34;;;3.24;100.00
13015;BME280;6573;57.696;11.950;2023-11-18T04:18:53;102405.56;;;3.21;100.00
13015;BME280;6573;57.696;11.950;2023-11-18T04:21:22;102389.69;;;3.15;100.00
13015;BME280;6573;57.696;11.950;2023-11-18T04:23:52;102476.22;;;3.78;100.00
13015;BME280;6573;57.696;11.950;2023-11-18T04:26:21;102400.72;;;3.27;100.00
13015;BME280;6573;57.696;11.950;2023-11-18T04:28:51;102460.03;;;3.34;100.00
13015;BME280;6573;57.696;11.950;2023-11-18T04:31:19;102477.72;;;3.25;100.00
13015;BME280;6573;57.696;11.950;2023-11-18T04:33:48;102456.44;;;3.32;100.00
13015;BME280;6573;57.696;11.950;2023-11-18T04:36:17;102466.84;;;3.32;100.00
13015;BME280;6573;57.696;11.950;2023-11-18T04:38:49;102464.25;;;3.16;100.00
13015;BME280;6573;57.696;11.950;2023-11-18T04:41:21;102417.63;;;2.87;100.00
13015;BME280;6573;57.696;11.950;2023-11-18T04:43:50;102423.47;;;2.99;100.00
13015;BME280;6573;57.696;11.950;2023-11-18T04:46:20;102422.78;;;3.03;100.00
13015;BME280;6573;57.696;11.950;2023-11-18T04:48:48;102464.56;;;3.38;100.00
13015;BME280;6573;57.696;11.950;2023-11-18T04:51:20;102467.00;;;3.35;100.00
13015;BME280;6573;57.696;11.950;2023-11-18T04:53:51;102466.69;;;3.29;100.00
13015;BME280;6573;57.696;11.950;2023-11-18T04:56:25;102418.44;;;3.02;100.00
13015;BME280;6573;57.696;11.950;2023-11-18T04:58:53;102372.97;;;2.78;100.00
13015;BME280;6573;57.696;11.950;2023-11-18T05:01:22;102453.59;;;3.27;100.00
13015;BME280;6573;57.696;11.950;2023-11-18T05:03:50;102414.03;;;3.17;100.00
13015;BME280;6573;57.696;11.950;2023-11-18T05:06:19;102416.63;;;3.17;100.00
13015;BME280;6573;57.696;11.950;2023-11-18T05:08:48;102367.44;;;2.88;100.00
13015;BME280;6573;57.696;11.950;2023-11-18T05:11:16;102339.81;;;2.90;100.00
13015;BME280;6573;57.696;11.950;2023-11-18T05:13:50;102365.44;;;3.16;100.00
13015;BME280;6573;57.696;11.950;2023-11-18T05:16:19;102402.00;;;3.19;100.00
13015;BME280;6573;57.696;11.950;2023-11-18T05:18:48;102378.78;;;3.06;100.00
13015;BME280;6573;57.696;11.950;2023-11-18T05:21:18;102345.50;;;2.67;100.00
13015;BME280;6573;57.696;11.950;2023-11-18T05:23:47;102418.97;;;3.28;100.00
13015;BME280;6573;57.696;11.950;2023-11-18T05:26:16;102439.28;;;3.52;100.00
13015;BME280;6573;57.696;11.950;2023-11-18T05:28:56;102418.53;;;3.53;100.00
13015;BME280;6573;57.696;11.950;2023-11-18T05:31:24;102384.09;;;3.41;100.00
13015;BME280;6573;57.696;11.950;2023-11-18T05:33:53;102401.16;;;3.36;100.00
13015;BME280;6573;57.696;11.950;2023-11-18T05:36:22;102408.47;;;3.43;100.00
13015;BME280;6573;57.696;11.950;2023-11-18T05:38:57;102412.03;;;3.45;100.00
13015;BME280;6573;57.696;11.950;2023-11-18T05:41:26;102424.56;;;3.52;100.00
13015;BME280;6573;57.696;11.950;2023-11-18T05:43:59;102368.16;;;3.35;100.00
13015;BME280;6573;57.696;11.950;2023-11-18T05:46:28;102332.94;;;3.24;100.00
13015;BME280;6573;57.696;11.950;2023-11-18T05:49:02;102385.09;;;3.27;100.00
13015;BME280;6573;57.696;11.950;2023-11-18T05:51:35;102415.13;;;3.38;100.00
13015;BME280;6573;57.696;11.950;2023-11-18T05:54:04;102418.97;;;3.62;100.00
13015;BME280;6573;57.696;11.950;2023-11-18T05:56:33;102417.03;;;3.74;100.00
13015;BME280;6573;57.696;11.950;2023-11-18T05:59:04;102368.94;;;3.50;100.00
13015;BME280;6573;57.696;11.950;2023-11-18T06:01:33;102337.72;;;3.50;100.00
13015;BME280;6573;57.696;11.950;2023-11-18T06:04:04;102337.44;;;3.44;100.00
13015;BME280;6573;57.696;11.950;2023-11-18T06:06:35;102433.69;;;3.96;100.00
13015;BME280;6573;57.696;11.950;2023-11-18T06:09:05;102428.91;;;3.69;100.00
13015;BME280;6573;57.696;11.950;2023-11-18T06:11:36;102425.31;;;3.50;100.00
13015;BME280;6573;57.696;11.950;2023-11-18T06:14:09;102433.16;;;3.51;100.00
13015;BME280;6573;57.696;11.950;2023-11-18T06:16:39;102430.22;;;3.61;100.00
13015;BME280;6573;57.696;11.950;2023-11-18T06:19:09;102353.28;;;3.15;100.00
13015;BME280;6573;57.696;11.950;2023-11-18T06:21:38;102306.16;;;2.93;100.00
13015;BME280;6573;57.696;11.950;2023-11-18T06:24:08;102437.16;;;3.78;100.00
13015;BME280;6573;57.696;11.950;2023-11-18T06:26:38;102345.41;;;3.31;100.00
13015;BME280;6573;57.696;11.950;2023-11-18T06:29:08;102441.25;;;3.73;100.00
13015;BME280;6573;57.696;11.950;2023-11-18T06:31:39;102411.19;;;3.62;100.00
13015;BME280;6573;57.696;11.950;2023-11-18T06:34:08;102434.56;;;3.78;100.00
13015;BME280;6573;57.696;11.950;2023-11-18T06:36:37;102440.53;;;3.93;100.00
13015;BME280;6573;57.696;11.950;2023-11-18T06:39:05;102405.97;;;3.62;100.00
13015;BME280;6573;57.696;11.950;2023-11-18T06:41:35;102344.06;;;3.21;100.00
13015;BME280;6573;57.696;11.950;2023-11-18T06:44:06;102443.22;;;3.95;100.00
13015;BME280;6573;57.696;11.950;2023-11-18T06:46:41;102442.56;;;3.65;100.00
13015;BME280;6573;57.696;11.950;2023-11-18T06:49:11;102443.69;;;3.70;100.00
13015;BME280;6573;57.696;11.950;2023-11-18T06:51:42;102444.53;;;3.53;100.00
13015;BME280;6573;57.696;11.950;2023-11-18T06:54:11;102444.03;;;3.60;100.00
13015;BME280;6573;57.696;11.950;2023-11-18T06:56:41;102400.16;;;3.50;100.00
13015;BME280;6573;57.696;11.950;2023-11-18T06:59:12;102393.47;;;3.55;100.00
13015;BME280;6573;57.696;11.950;2023-11-18T07:01:45;102411.81;;;3.74;100.00
13015;BME280;6573;57.696;11.950;2023-11-18T07:04:14;102428.56;;;3.79;100.00
13015;BME280;6573;57.696;11.950;2023-11-18T07:06:43;102420.75;;;3.79;100.00
13015;BME280;6573;57.696;11.950;2023-11-18T07:09:12;102431.88;;;3.59;100.00
13015;BME280;6573;57.696;11.950;2023-11-18T07:11:45;102400.31;;;3.53;100.00
13015;BME280;6573;57.696;11.950;2023-11-18T07:14:15;102438.75;;;3.92;100.00
13015;BME280;6573;57.696;11.950;2023-11-18T07:16:46;102418.94;;;3.78;100.00
13015;BME280;6573;57.696;11.950;2023-11-18T07:19:17;102434.56;;;3.78;100.00
13015;BME280;6573;57.696;11.950;2023-11-18T07:21:48;102414.56;;;3.44;100.00
13015;BME280;6573;57.696;11.950;2023-11-18T07:24:18;102452.00;;;3.79;100.00
13015;BME280;6573;57.696;11.950;2023-11-18T07:26:50;102407.16;;;3.35;100.00
13015;BME280;6573;57.696;11.950;2023-11-18T07:29:21;102434.91;;;3.68;100.00
13015;BME280;6573;57.696;11.950;2023-11-18T07:31:52;102477.22;;;3.98;100.00
13015;BME280;6573;57.696;11.950;2023-11-18T07:34:21;102454.38;;;3.92;100.00
13015;BME280;6573;57.696;11.950;2023-11-18T07:36:50;102325.81;;;3.20;100.00
13015;BME280;6573;57.696;11.950;2023-11-18T07:39:19;102418.34;;;3.66;100.00
13015;BME280;6573;57.696;11.950;2023-11-18T07:42:07;102458.31;;;3.84;100.00
13015;BME280;6573;57.696;11.950;2023-11-18T07:44:36;102469.94;;;4.09;100.00
13015;BME280;6573;57.696;11.950;2023-11-18T07:47:07;102410.19;;;3.76;100.00
13015;BME280;6573;57.696;11.950;2023-11-18T07:49:35;102474.44;;;4.29;100.00
13015;BME280;6573;57.696;11.950;2023-11-18T07:52:04;102483.50;;;4.19;100.00
13015;BME280;6573;57.696;11.950;2023-11-18T07:54:33;102448.97;;;4.06;100.00
13015;BME280;6573;57.696;11.950;2023-11-18T07:57:02;102455.88;;;4.23;100.00
13015;BME280;6573;57.696;11.950;2023-11-18T07:59:31;102473.81;;;4.34;100.00
13015;BME280;6573;57.696;11.950;2023-11-18T08:01:59;102476.44;;;4.17;100.00
13015;BME280;6573;57.696;11.950;2023-11-18T08:04:34;102457.38;;;4.18;100.00
13015;BME280;6573;57.696;11.950;2023-11-18T08:07:03;102484.91;;;4.30;100.00
13015;BME280;6573;57.696;11.950;2023-11-18T08:09:32;102458.44;;;4.21;100.00
13015;BME280;6573;57.696;11.950;2023-11-18T08:12:00;102487.50;;;4.13;100.00
13015;BME280;6573;57.696;11.950;2023-11-18T08:14:30;102472.09;;;4.35;100.00
13015;BME280;6573;57.696;11.950;2023-11-18T08:16:59;102400.22;;;4.03;100.00
13015;BME280;6573;57.696;11.950;2023-11-18T08:19:29;102487.59;;;4.32;100.00
13015;BME280;6573;57.696;11.950;2023-11-18T08:22:00;102488.78;;;4.38;100.00
13015;BME280;6573;57.696;11.950;2023-11-18T08:24:40;102481.19;;;4.43;100.00
13015;BME280;6573;57.696;11.950;2023-11-18T08:27:11;102458.72;;;4.45;100.00
13015;BME280;6573;57.696;11.950;2023-11-18T08:29:43;102459.13;;;4.54;100.00
13015;BME280;6573;57.696;11.950;2023-11-18T08:32:13;102483.25;;;4.68;100.00
13015;BME280;6573;57.696;11.950;2023-11-18T08:34:43;102462.72;;;4.56;100.00
13015;BME280;6573;57.696;11.950;2023-11-18T08:37:14;102488.16;;;4.79;100.00
13015;BME280;6573;57.696;11.950;2023-11-18T08:39:44;102445.44;;;4.58;100.00
13015;BME280;6573;57.696;11.950;2023-11-18T08:42:18;102357.97;;;4.09;100.00
13015;BME280;6573;57.696;11.950;2023-11-18T08:44:48;102393.53;;;4.26;100.00
13015;BME280;6573;57.696;11.950;2023-11-18T08:47:20;102398.88;;;4.46;100.00
13015;BME280;6573;57.696;11.950;2023-11-18T08:49:49;102473.06;;;4.91;100.00
13015;BME280;6573;57.696;11.950;2023-11-18T08:52:20;102379.66;;;4.27;100.00
13015;BME280;6573;57.696;11.950;2023-11-18T08:54:48;102429.78;;;4.76;100.00
13015;BME280;6573;57.696;11.950;2023-11-18T08:57:44;102435.31;;;5.01;100.00
13015;BME280;6573;57.696;11.950;2023-11-18T09:00:27;102421.56;;;4.86;100.00
13015;BME280;6573;57.696;11.950;2023-11-18T09:03:12;102449.34;;;5.04;100.00
13015;BME280;6573;57.696;11.950;2023-11-18T09:05:45;102418.06;;;4.85;100.00
13015;BME280;6573;57.696;11.950;2023-11-18T09:08:39;102456.06;;;4.99;100.00
13015;BME280;6573;57.696;11.950;2023-11-18T09:11:11;102455.66;;;4.90;100.00
13015;BME280;6573;57.696;11.950;2023-11-18T09:13:42;102373.69;;;4.47;100.00
13015;BME280;6573;57.696;11.950;2023-11-18T09:16:12;102461.16;;;4.96;100.00
13015;BME280;6573;57.696;11.950;2023-11-18T09:18:43;102466.66;;;5.02;100.00
13015;BME280;6573;57.696;11.950;2023-11-18T09:21:14;102445.66;;;4.99;100.00
13015;BME280;6573;57.696;11.950;2023-11-18T09:23:48;102460.47;;;5.19;100.00
13015;BME280;6573;57.696;11.950;2023-11-18T09:26:16;102424.38;;;5.09;100.00
13015;BME280;6573;57.696;11.950;2023-11-18T09:28:45;102405.28;;;4.91;100.00
13015;BME280;6573;57.696;11.950;2023-11-18T09:31:17;102348.47;;;4.65;100.00
13015;BME280;6573;57.696;11.950;2023-11-18T09:33:48;102480.00;;;5.28;100.00
13015;BME280;6573;57.696;11.950;2023-11-18T09:36:25;102481.88;;;4.93;100.00
13015;BME280;6573;57.696;11.950;2023-11-18T09:38:57;102357.81;;;4.06;100.00
13015;BME280;6573;57.696;11.950;2023-11-18T09:41:29;102479.69;;;4.66;100.00
13015;BME280;6573;57.696;11.950;2023-11-18T09:44:01;102480.44;;;4.63;100.00
13015;BME280;6573;57.696;11.950;2023-11-18T09:46:30;102489.22;;;4.65;100.00
13015;BME280;6573;57.696;11.950;2023-11-18T09:49:09;102464.56;;;4.76;100.00
13015;BME280;6573;57.696;11.950;2023-11-18T09:51:57;102390.22;;;4.30;100.00
